createdAt,value
2019-04-10T00:00:00.230Z,73.86
2019-04-10T00:02:48.166Z,74.11
2019-04-10T00:05:36.174Z,74.07
2019-04-10T00:08:22.406Z,74.60
2019-04-10T00:11:10.246Z,74.49
2019-04-10T00:13:58.710Z,74.76
2019-04-10T00:16:45.113Z,72.94
2019-04-10T00:19:32.906Z,74.13
2019-04-10T00:22:20.160Z,72.97
2019-04-10T00:25:06.956Z,74.10
2019-04-10T00:31:02.841Z,75.08
2019-04-10T00:33:51.176Z,75.71
2019-04-10T00:36:37.357Z,75.75
2019-04-10T00:39:24.481Z,76.03
2019-04-10T00:42:18.989Z,74.42
2019-04-10T00:45:06.403Z,75.46
2019-04-10T00:50:59.800Z,75.96
2019-04-10T00:53:47.552Z,76.11
2019-04-10T00:59:40.799Z,76.46
2019-04-10T01:02:29.073Z,76.40
2019-04-10T01:08:22.458Z,75.03
2019-04-10T01:11:10.719Z,75.00
2019-04-10T01:14:05.396Z,75.88
2019-04-10T01:16:52.251Z,76.27
2019-04-10T01:19:40.504Z,75.12
2019-04-10T01:22:27.560Z,76.30
2019-04-10T01:31:27.263Z,77.38
2019-04-10T01:34:29.473Z,77.50
2019-04-10T01:37:16.661Z,77.92
2019-04-10T01:40:03.170Z,77.66
2019-04-10T01:49:03.063Z,77.18
2019-04-10T01:51:50.309Z,77.18
2019-04-10T01:57:44.235Z,75.67
2019-04-10T02:00:34.183Z,76.38
2019-04-10T02:06:28.139Z,75.94
2019-04-10T02:12:22.804Z,76.71
2019-04-10T02:15:14.015Z,77.05
2019-04-10T02:18:10.921Z,76.95
2019-04-10T02:20:59.118Z,76.70
2019-04-10T02:23:46.923Z,77.01
2019-04-10T02:29:54.094Z,76.20
2019-04-10T02:32:45.107Z,75.96
2019-04-10T02:38:57.473Z,77.60
2019-04-10T02:47:43.259Z,77.75
2019-04-10T02:50:29.378Z,77.94
2019-04-10T02:56:23.782Z,78.25
2019-04-10T03:02:16.213Z,78.42
2019-04-10T03:05:04.593Z,78.18
2019-04-10T03:07:50.370Z,78.28
2019-04-10T03:10:44.142Z,77.01
2019-04-10T03:13:26.857Z,76.40
2019-04-10T03:16:27.241Z,76.20
2019-04-10T03:19:14.531Z,77.18
2019-04-10T03:22:01.847Z,77.82
2019-04-10T03:24:50.660Z,77.75
2019-04-10T03:27:50.757Z,77.82
2019-04-10T03:30:53.833Z,77.58
2019-04-10T03:33:44.572Z,77.57
2019-04-10T03:36:28.029Z,77.08
2019-04-10T03:42:23.223Z,77.45
2019-04-10T03:45:09.593Z,77.07
2019-04-10T03:51:03.986Z,77.32
2019-04-10T03:53:50.801Z,77.51
2019-04-10T03:56:52.359Z,77.26
2019-04-10T03:59:40.717Z,76.52
2019-04-10T04:02:27.358Z,77.08
2019-04-10T04:05:13.271Z,77.12
2019-04-10T04:08:01.303Z,77.56
2019-04-10T04:11:03.144Z,77.38
2019-04-10T04:13:50.118Z,77.23
2019-04-10T04:16:37.335Z,77.36
2019-04-10T04:19:24.139Z,77.52
2019-04-10T04:22:25.863Z,77.98
2019-04-10T04:25:13.086Z,78.02
2019-04-10T04:28:00.839Z,77.06
2019-04-10T04:40:06.914Z,78.24
2019-04-10T04:42:57.890Z,78.76
2019-04-10T04:45:44.473Z,79.27
2019-04-10T04:51:37.465Z,79.34
2019-04-10T04:54:31.696Z,79.54
2019-04-10T04:57:18.842Z,79.86
2019-04-10T05:00:07.672Z,79.70
2019-04-10T05:03:07.842Z,79.66
2019-04-10T05:12:16.389Z,77.95
2019-04-10T05:15:02.641Z,78.86
2019-04-10T05:20:56.693Z,78.55
2019-04-10T05:23:42.917Z,77.13
2019-04-10T05:26:30.274Z,78.03
2019-04-10T05:29:18.226Z,78.48
2019-04-10T05:32:05.635Z,78.52
2019-04-10T05:34:53.178Z,79.24
2019-04-10T05:37:47.785Z,79.32
2019-04-10T05:40:36.656Z,77.55
2019-04-10T05:43:24.021Z,78.50
2019-04-10T05:46:10.669Z,79.08
2019-04-10T05:55:10.109Z,79.85
2019-04-10T05:57:59.388Z,80.01
2019-04-10T06:00:47.117Z,80.17
2019-04-10T06:06:40.875Z,79.91
2019-04-10T06:09:51.939Z,78.04
2019-04-10T06:12:28.604Z,76.85
2019-04-10T06:15:16.908Z,77.84
2019-04-10T06:18:03.064Z,78.12
2019-04-10T06:20:50.428Z,78.30
2019-04-10T06:26:44.455Z,78.48
2019-04-10T06:29:35.385Z,78.26
2019-04-10T06:32:25.519Z,78.39
2019-04-10T06:35:13.588Z,78.38
2019-04-10T06:37:59.747Z,76.02
2019-04-10T06:40:46.582Z,77.02
2019-04-10T06:46:41.708Z,76.67
2019-04-10T06:49:29.137Z,76.54
2019-04-10T06:52:16.596Z,76.39
2019-04-10T06:55:03.106Z,75.32
2019-04-10T06:57:55.047Z,74.18
2019-04-10T07:00:38.953Z,73.42
2019-04-10T07:03:45.077Z,72.90
2019-04-10T07:06:19.864Z,72.46
2019-04-10T07:09:01.646Z,71.89
2019-04-10T07:14:58.111Z,70.95
2019-04-10T07:17:43.556Z,67.73
2019-04-10T07:20:31.564Z,68.17
2019-04-10T07:23:23.397Z,67.68
2019-04-10T07:26:04.374Z,67.39
2019-04-10T07:28:51.913Z,67.31
2019-04-10T07:31:39.942Z,66.11
2019-04-10T07:34:29.799Z,65.27
2019-04-10T07:37:17.518Z,63.80
2019-04-10T07:40:04.085Z,62.71
2019-04-10T07:42:50.421Z,62.11
2019-04-10T07:45:36.972Z,61.72
2019-04-10T07:48:25.121Z,61.11
2019-04-10T07:51:11.304Z,60.39
2019-04-10T07:53:58.107Z,59.89
2019-04-10T07:56:45.567Z,58.82
2019-04-10T07:59:33.406Z,58.38
2019-04-10T08:02:19.734Z,57.58
2019-04-10T08:05:08.058Z,56.42
2019-04-10T08:07:55.953Z,56.18
2019-04-10T08:10:43.674Z,56.15
2019-04-10T08:13:28.920Z,55.59
2019-04-10T08:16:17.032Z,54.36
2019-04-10T08:19:04.030Z,54.32
2019-04-10T08:21:50.839Z,48.32
2019-04-10T08:24:40.769Z,51.12
2019-04-10T08:27:27.987Z,51.41
2019-04-10T08:30:15.417Z,50.05
2019-04-10T08:33:04.449Z,50.34
2019-04-10T08:35:50.567Z,49.96
2019-04-10T08:38:38.064Z,51.30
2019-04-10T08:41:26.838Z,45.03
2019-04-10T08:44:13.537Z,47.02
2019-04-10T08:47:00.105Z,45.78
2019-04-10T08:49:47.475Z,46.62
2019-04-10T08:55:42.031Z,46.04
2019-04-10T08:58:29.283Z,45.64
2019-04-10T09:01:23.596Z,46.25
2019-04-10T09:04:12.506Z,46.25
2019-04-10T09:07:01.396Z,45.36
2019-04-10T09:09:46.046Z,46.54
2019-04-10T09:12:33.648Z,43.94
2019-04-10T09:15:19.567Z,45.37
2019-04-10T09:18:08.151Z,45.77
2019-04-10T09:20:55.092Z,44.03
2019-04-10T09:23:47.347Z,43.83
2019-04-10T09:26:28.768Z,43.67
2019-04-10T09:29:16.100Z,43.66
2019-04-10T09:32:04.395Z,43.31
2019-04-10T09:34:50.384Z,43.27
2019-04-10T09:37:38.160Z,42.13
2019-04-10T09:40:40.257Z,41.88
2019-04-10T09:43:26.372Z,40.77
2019-04-10T09:46:13.531Z,41.82
2019-04-10T09:49:00.544Z,43.24
2019-04-10T09:51:48.185Z,42.83
2019-04-10T09:54:34.957Z,42.13
2019-04-10T09:57:22.480Z,42.40
2019-04-10T10:00:10.456Z,41.92
2019-04-10T10:02:55.805Z,41.02
2019-04-10T10:05:44.599Z,40.96
2019-04-10T10:08:31.440Z,40.53
2019-04-10T10:11:18.069Z,41.03
2019-04-10T10:14:04.324Z,41.50
2019-04-10T10:16:52.697Z,37.11
2019-04-10T10:19:40.627Z,39.88
2019-04-10T10:22:27.396Z,39.62
2019-04-10T10:25:15.226Z,39.20
2019-04-10T10:28:01.476Z,38.36
2019-04-10T10:30:49.519Z,38.09
2019-04-10T10:33:52.201Z,40.42
2019-04-10T10:36:41.923Z,39.68
2019-04-10T10:39:26.543Z,38.87
2019-04-10T10:42:13.740Z,40.59
2019-04-10T10:48:08.601Z,38.30
2019-04-10T10:50:56.214Z,38.52
2019-04-10T10:53:42.387Z,37.40
2019-04-10T10:56:30.598Z,36.79
2019-04-10T10:59:17.519Z,36.89
2019-04-10T11:02:04.352Z,32.89
2019-04-10T11:04:51.700Z,34.95
2019-04-10T11:07:38.852Z,35.24
2019-04-10T11:10:27.631Z,36.49
2019-04-10T11:13:15.023Z,35.70
2019-04-10T11:16:03.952Z,36.00
2019-04-10T11:18:48.458Z,37.03
2019-04-10T11:21:34.705Z,36.87
2019-04-10T11:24:22.827Z,35.11
2019-04-10T11:30:16.220Z,35.31
2019-04-10T11:33:04.047Z,35.51
2019-04-10T11:35:51.530Z,35.47
2019-04-10T11:38:39.688Z,36.10
2019-04-10T11:41:26.228Z,37.31
2019-04-10T11:44:14.399Z,36.69
2019-04-10T11:47:00.468Z,30.94
2019-04-10T11:49:49.576Z,33.94
2019-04-10T11:55:46.719Z,35.44
2019-04-10T11:58:29.117Z,31.40
2019-04-10T12:01:17.560Z,33.27
2019-04-10T12:04:06.750Z,34.39
2019-04-10T12:06:54.046Z,34.39
2019-04-10T12:12:25.835Z,35.00
2019-04-10T12:15:12.299Z,35.02
2019-04-10T12:17:59.025Z,34.98
2019-04-10T12:20:46.338Z,34.95
2019-04-10T12:26:40.196Z,36.00
2019-04-10T12:32:34.718Z,36.64
2019-04-10T12:35:22.621Z,32.44
2019-04-10T12:41:17.213Z,36.54
2019-04-10T12:44:03.261Z,35.44
2019-04-10T12:46:51.178Z,35.33
2019-04-10T12:49:52.159Z,35.98
2019-04-10T12:52:40.966Z,35.42
2019-04-10T12:55:28.326Z,34.95
2019-04-10T12:58:17.668Z,34.62
2019-04-10T13:01:04.476Z,35.52
2019-04-10T13:03:50.186Z,35.45
2019-04-10T13:06:52.725Z,34.89
2019-04-10T13:09:53.963Z,34.52
2019-04-10T13:12:43.183Z,34.97
2019-04-10T13:15:31.768Z,33.81
2019-04-10T13:18:18.480Z,35.07
2019-04-10T13:21:05.017Z,30.95
2019-04-10T13:23:53.047Z,32.81
2019-04-10T13:26:41.902Z,33.24
2019-04-10T13:29:36.380Z,33.87
2019-04-10T13:32:23.398Z,33.34
2019-04-10T13:35:10.201Z,33.01
2019-04-10T13:37:56.900Z,32.72
2019-04-10T13:40:43.830Z,33.33
2019-04-10T13:43:30.988Z,32.96
2019-04-10T13:46:18.493Z,32.69
2019-04-10T13:49:06.041Z,32.44
2019-04-10T13:51:51.947Z,32.13
2019-04-10T13:54:40.884Z,32.79
2019-04-10T13:57:27.045Z,32.55
2019-04-10T14:00:14.350Z,32.81
2019-04-10T14:03:01.950Z,32.64
2019-04-10T14:05:49.747Z,33.35
2019-04-10T14:09:01.808Z,33.59
2019-04-10T14:14:31.002Z,30.10
2019-04-10T14:17:19.508Z,31.86
2019-04-10T14:20:05.351Z,31.65
2019-04-10T14:23:10.481Z,31.44
2019-04-10T14:29:30.237Z,31.81
2019-04-10T14:32:17.504Z,32.12
2019-04-10T14:35:05.245Z,31.74
2019-04-10T14:37:52.713Z,31.95
2019-04-10T14:40:40.130Z,31.73
2019-04-10T14:43:28.439Z,32.67
2019-04-10T14:46:14.713Z,32.45
2019-04-10T14:49:02.823Z,28.67
2019-04-10T14:51:49.614Z,31.89
2019-04-10T14:54:37.656Z,32.41
2019-04-10T14:57:24.541Z,31.99
2019-04-10T15:00:18.111Z,32.85
2019-04-10T15:03:12.648Z,32.67
2019-04-10T15:06:01.379Z,32.65
2019-04-10T15:08:48.785Z,32.12
2019-04-10T15:11:48.962Z,32.81
2019-04-10T15:14:35.940Z,33.94
2019-04-10T15:17:23.104Z,30.57
2019-04-10T15:20:11.081Z,32.88
2019-04-10T15:22:56.784Z,32.94
2019-04-10T15:25:43.982Z,30.99
2019-04-10T15:28:31.904Z,32.93
2019-04-10T15:31:19.966Z,32.78
2019-04-10T15:34:14.676Z,33.17
2019-04-10T15:37:01.569Z,32.74
2019-04-10T15:39:49.696Z,31.87
2019-04-10T15:42:37.808Z,31.08
2019-04-10T15:45:26.027Z,30.96
2019-04-10T15:48:13.484Z,31.77
2019-04-10T15:51:00.261Z,30.94
2019-04-10T15:53:47.318Z,30.47
2019-04-10T15:56:34.749Z,29.58
2019-04-10T16:02:28.550Z,29.00
2019-04-10T16:05:15.892Z,30.76
2019-04-10T16:08:03.118Z,28.53
2019-04-10T16:11:05.523Z,31.78
2019-04-10T16:14:16.963Z,31.46
2019-04-10T16:16:59.165Z,28.17
2019-04-10T16:19:51.924Z,27.10
2019-04-10T16:22:40.542Z,28.79
2019-04-10T16:25:30.101Z,29.17
2019-04-10T16:28:18.035Z,28.76
2019-04-10T16:31:08.368Z,28.88
2019-04-10T16:33:58.896Z,29.25
2019-04-10T16:36:50.110Z,28.83
2019-04-10T16:42:43.611Z,30.42
2019-04-10T16:45:30.708Z,31.28
2019-04-10T16:48:18.909Z,31.39
2019-04-10T16:51:05.152Z,32.89
2019-04-10T16:53:53.695Z,31.04
2019-04-10T16:56:40.180Z,30.93
2019-04-10T17:02:33.892Z,34.81
2019-04-10T17:05:21.352Z,35.62
2019-04-10T17:14:23.804Z,37.20
2019-04-10T17:17:10.658Z,35.72
2019-04-10T17:19:58.998Z,37.80
2019-04-10T17:22:47.706Z,38.40
2019-04-10T17:25:32.111Z,38.75
2019-04-10T17:28:22.043Z,38.92
2019-04-10T17:31:07.503Z,39.34
2019-04-10T17:33:54.562Z,39.80
2019-04-10T17:36:41.109Z,40.00
2019-04-10T17:39:43.774Z,40.51
2019-04-10T17:42:30.489Z,40.73
2019-04-10T17:45:18.534Z,40.92
2019-04-10T17:48:05.200Z,41.35
2019-04-10T17:50:55.219Z,41.65
2019-04-10T17:53:41.869Z,42.28
2019-04-10T17:56:28.408Z,42.38
2019-04-10T17:59:16.277Z,43.01
2019-04-10T18:05:10.899Z,43.70
2019-04-10T18:07:58.697Z,44.20
2019-04-10T18:10:49.867Z,44.87
2019-04-10T18:13:31.918Z,45.36
2019-04-10T18:16:20.006Z,45.53
2019-04-10T18:19:06.873Z,45.57
2019-04-10T18:21:56.389Z,45.29
2019-04-10T18:24:43.313Z,45.63
2019-04-10T18:30:37.145Z,45.89
2019-04-10T18:33:24.545Z,45.99
2019-04-10T18:36:11.365Z,46.11
2019-04-10T18:38:59.635Z,46.07
2019-04-10T18:41:46.567Z,46.35
2019-04-10T18:44:33.536Z,46.18
2019-04-10T18:53:45.777Z,47.24
2019-04-10T18:56:33.460Z,47.50
2019-04-10T18:59:40.890Z,48.07
2019-04-10T19:02:37.044Z,48.64
2019-04-10T19:05:26.050Z,48.55
2019-04-10T19:08:14.316Z,48.70
2019-04-10T19:11:15.385Z,48.25
2019-04-10T19:14:00.709Z,48.69
2019-04-10T19:16:55.914Z,47.24
2019-04-10T19:20:02.131Z,47.99
2019-04-10T19:25:50.942Z,48.40
2019-04-10T19:31:50.337Z,48.14
2019-04-10T19:34:37.502Z,48.93
2019-04-10T19:37:24.923Z,49.38
2019-04-10T19:40:11.310Z,49.35
2019-04-10T19:49:12.285Z,50.00
2019-04-10T19:52:00.163Z,50.64
2019-04-10T19:54:47.260Z,50.58
2019-04-10T19:57:34.270Z,50.46
2019-04-10T20:00:22.148Z,51.00
2019-04-10T20:03:09.099Z,51.06
2019-04-10T20:05:57.686Z,51.39
2019-04-10T20:08:44.500Z,51.62
2019-04-10T20:11:38.698Z,51.13
2019-04-10T20:14:20.133Z,52.46
2019-04-10T20:17:08.152Z,52.88
2019-04-10T20:19:57.181Z,53.58
2019-04-10T20:22:44.013Z,53.31
2019-04-10T20:25:32.505Z,52.56
2019-04-10T20:28:19.185Z,53.84
2019-04-10T20:31:07.334Z,54.12
2019-04-10T20:33:54.763Z,54.18
2019-04-10T20:36:41.643Z,52.52
2019-04-10T20:42:34.226Z,53.65
2019-04-10T20:45:23.148Z,52.03
2019-04-10T20:48:09.640Z,52.86
2019-04-10T20:50:57.384Z,53.26
2019-04-10T20:53:44.284Z,53.32
2019-04-10T20:56:34.763Z,53.23
2019-04-10T20:59:21.013Z,53.28
2019-04-10T21:02:08.223Z,53.34
2019-04-10T21:08:06.206Z,53.49
2019-04-10T21:10:53.210Z,53.57
2019-04-10T21:13:40.636Z,52.31
2019-04-10T21:16:28.654Z,53.36
2019-04-10T21:19:16.614Z,53.52
2019-04-10T21:22:04.338Z,53.49
2019-04-10T21:27:58.614Z,53.55
2019-04-10T21:30:46.476Z,53.77
2019-04-10T21:36:41.579Z,53.60
2019-04-10T21:39:29.662Z,52.78
2019-04-10T21:42:22.285Z,54.15
2019-04-10T21:48:12.603Z,54.37
2019-04-10T21:51:00.503Z,53.42
2019-04-10T21:53:47.368Z,54.67
2019-04-10T21:56:35.158Z,55.54
2019-04-10T21:59:21.151Z,55.71
2019-04-10T22:02:08.452Z,54.73
2019-04-10T22:04:55.981Z,56.12
2019-04-10T22:07:45.994Z,56.54
2019-04-10T22:10:46.642Z,56.59
2019-04-10T22:13:33.441Z,56.96
2019-04-10T22:16:21.973Z,57.28
2019-04-10T22:19:08.001Z,57.43
2019-04-10T22:21:55.792Z,57.01
2019-04-10T22:24:43.916Z,56.92
2019-04-10T22:30:37.203Z,57.40
2019-04-10T22:33:25.017Z,57.97
2019-04-10T22:36:20.635Z,58.72
2019-04-10T22:39:06.775Z,58.99
2019-04-10T22:42:01.160Z,58.25
2019-04-10T22:44:49.893Z,60.17
2019-04-10T22:47:36.701Z,60.44
2019-04-10T22:50:24.463Z,60.73
2019-04-10T22:53:10.381Z,60.60
2019-04-10T22:56:04.764Z,60.63
2019-04-10T22:58:53.201Z,61.12
2019-04-10T23:01:39.791Z,59.72
2019-04-10T23:04:26.480Z,59.79
2019-04-10T23:07:13.582Z,59.61
2019-04-10T23:10:02.576Z,59.53
2019-04-10T23:12:57.543Z,59.31
2019-04-10T23:21:50.920Z,62.01
2019-04-10T23:24:51.949Z,62.77
2019-04-10T23:27:38.746Z,63.69
2019-04-10T23:30:33.020Z,63.94
2019-04-10T23:33:19.763Z,63.94
2019-04-10T23:36:07.656Z,64.25
2019-04-10T23:38:53.949Z,62.80
2019-04-10T23:41:42.083Z,62.26
2019-04-10T23:44:33.163Z,63.95
2019-04-10T23:47:26.332Z,64.59
2019-04-10T23:50:15.024Z,64.65
2019-04-10T23:53:00.624Z,64.58
2019-04-10T23:56:02.204Z,64.90
2019-04-10T23:58:50.645Z,65.01
